createdAt,value
2017-05-05T00:00:31.034Z,99.90
2017-05-05T00:02:59.612Z,99.90
2017-05-05T00:05:28.253Z,99.90
2017-05-05T00:07:56.855Z,99.90
2017-05-05T00:10:25.482Z,99.90
2017-05-05T00:12:54.113Z,99.90
2017-05-05T00:15:22.686Z,99.90
2017-05-05T00:17:51.269Z,99.90
2017-05-05T00:20:19.926Z,99.90
2017-05-05T00:22:48.508Z,99.90
2017-05-05T00:25:17.088Z,99.90
2017-05-05T00:27:45.698Z,99.90
2017-05-05T00:30:14.297Z,99.90
2017-05-05T00:32:42.917Z,99.90
2017-05-05T00:35:11.579Z,99.90
2017-05-05T00:37:40.144Z,99.90
2017-05-05T00:40:08.731Z,99.90
2017-05-05T00:42:37.379Z,99.90
2017-05-05T00:45:05.963Z,99.90
2017-05-05T00:47:34.543Z,99.90
2017-05-05T00:50:03.225Z,99.90
2017-05-05T00:52:31.804Z,99.90
2017-05-05T00:55:00.416Z,99.90
2017-05-05T00:57:29.084Z,99.90
2017-05-05T00:59:57.691Z,99.90
2017-05-05T01:02:26.277Z,99.90
2017-05-05T01:04:54.918Z,99.90
2017-05-05T01:07:23.525Z,99.90
2017-05-05T01:09:52.142Z,99.90
2017-05-05T01:12:20.792Z,99.90
2017-05-05T01:14:49.375Z,99.90
2017-05-05T01:17:17.947Z,99.90
2017-05-05T01:19:46.608Z,99.90
2017-05-05T01:22:15.191Z,99.90
2017-05-05T01:24:43.785Z,99.90
2017-05-05T01:27:12.424Z,99.90
2017-05-05T01:29:41.006Z,99.90
2017-05-05T01:32:09.588Z,99.90
2017-05-05T01:34:38.196Z,99.90
2017-05-05T01:37:06.761Z,99.90
2017-05-05T01:39:35.332Z,99.90
2017-05-05T01:42:04.114Z,99.90
2017-05-05T01:44:32.705Z,99.90
2017-05-05T01:47:01.300Z,99.90
2017-05-05T01:49:30.890Z,99.90
2017-05-05T01:51:59.503Z,99.90
2017-05-05T01:54:28.651Z,99.90
2017-05-05T01:56:57.298Z,99.90
2017-05-05T01:59:25.912Z,99.90
2017-05-05T02:01:54.499Z,99.90
2017-05-05T02:04:23.123Z,99.90
2017-05-05T02:06:51.718Z,99.90
2017-05-05T02:09:20.340Z,99.90
2017-05-05T02:11:48.975Z,99.90
2017-05-05T02:14:18.441Z,99.90
2017-05-05T02:16:47.063Z,99.90
2017-05-05T02:19:15.693Z,99.90
2017-05-05T02:21:44.318Z,99.90
2017-05-05T02:24:12.911Z,99.90
2017-05-05T02:26:41.620Z,99.90
2017-05-05T02:29:10.210Z,99.90
2017-05-05T02:31:38.785Z,99.90
2017-05-05T02:34:07.428Z,99.90
2017-05-05T02:36:36.029Z,99.90
2017-05-05T02:39:05.470Z,99.90
2017-05-05T02:41:34.115Z,99.90
2017-05-05T02:44:02.699Z,99.90
2017-05-05T02:46:31.303Z,99.90
2017-05-05T02:48:59.964Z,99.90
2017-05-05T02:51:28.544Z,99.90
2017-05-05T02:53:57.142Z,99.90
2017-05-05T02:56:25.786Z,99.90
2017-05-05T02:58:54.396Z,99.90
2017-05-05T03:01:22.979Z,99.90
2017-05-05T03:03:51.615Z,99.90
2017-05-05T03:06:20.204Z,99.90
2017-05-05T03:08:48.802Z,99.90
2017-05-05T03:11:17.442Z,99.90
2017-05-05T03:13:46.066Z,99.90
2017-05-05T03:16:14.637Z,99.90
2017-05-05T03:18:43.233Z,99.90
2017-05-05T03:21:11.788Z,99.90
2017-05-05T03:35:15.280Z,99.90
2017-05-05T03:37:43.839Z,99.90
2017-05-05T03:40:12.373Z,99.90
2017-05-05T03:42:40.984Z,99.90
2017-05-05T03:45:09.546Z,99.90
2017-05-05T03:47:38.128Z,99.90
2017-05-05T03:50:06.783Z,99.90
2017-05-05T03:52:35.336Z,99.90
2017-05-05T03:55:03.882Z,99.90
2017-05-05T03:57:32.452Z,99.90
2017-05-05T04:00:00.994Z,99.90
2017-05-05T04:02:29.537Z,99.90
2017-05-05T04:04:58.124Z,99.90
2017-05-05T04:07:26.660Z,99.90
2017-05-05T04:09:55.194Z,99.90
2017-05-05T04:12:23.996Z,99.90
2017-05-05T04:14:53.301Z,99.90
2017-05-05T04:17:21.847Z,99.90
2017-05-05T04:19:50.454Z,99.90
2017-05-05T04:22:19.014Z,99.90
2017-05-05T04:24:47.562Z,99.90
2017-05-05T04:27:16.150Z,99.90
2017-05-05T04:29:44.688Z,99.90
2017-05-05T04:32:13.229Z,99.90
2017-05-05T04:34:41.820Z,99.90
2017-05-05T04:37:10.373Z,99.90
2017-05-05T04:39:38.935Z,99.90
2017-05-05T04:42:07.537Z,99.90
2017-05-05T04:44:36.092Z,99.90
2017-05-05T04:47:04.619Z,99.90
2017-05-05T04:49:33.220Z,99.90
2017-05-05T04:52:01.794Z,99.90
2017-05-05T04:54:30.334Z,99.90
2017-05-05T04:56:58.933Z,99.90
2017-05-05T04:59:27.492Z,99.90
2017-05-05T05:01:56.042Z,99.90
2017-05-05T05:04:24.627Z,99.90
2017-05-05T05:06:53.229Z,99.90
2017-05-05T05:09:21.772Z,99.90
2017-05-05T05:11:50.391Z,99.90
2017-05-05T05:14:18.940Z,99.90
2017-05-05T05:16:47.477Z,99.90
2017-05-05T05:19:16.073Z,99.90
2017-05-05T05:21:44.625Z,99.90
2017-05-05T05:24:13.187Z,99.90
2017-05-05T05:26:41.790Z,99.90
2017-05-05T05:29:10.674Z,99.90
2017-05-05T05:31:39.223Z,99.90
2017-05-05T05:34:07.811Z,99.90
2017-05-05T05:36:36.360Z,99.90
2017-05-05T05:39:04.913Z,99.90
2017-05-05T05:41:33.703Z,99.90
2017-05-05T05:44:02.243Z,99.90
2017-05-05T05:46:30.780Z,99.90
2017-05-05T05:48:59.364Z,99.90
2017-05-05T05:51:27.897Z,99.90
2017-05-05T05:53:56.448Z,99.90
2017-05-05T05:56:25.031Z,99.90
2017-05-05T05:58:53.575Z,99.90
2017-05-05T06:01:22.114Z,99.90
2017-05-05T06:03:50.688Z,99.90
2017-05-05T06:06:19.232Z,99.90
2017-05-05T06:08:47.772Z,99.90
2017-05-05T06:11:16.370Z,99.90
2017-05-05T06:13:44.910Z,99.90
2017-05-05T06:16:13.433Z,99.90
2017-05-05T06:18:42.024Z,99.90
2017-05-05T06:21:10.562Z,99.90
2017-05-05T06:23:39.095Z,99.90
2017-05-05T06:26:07.700Z,99.90
2017-05-05T06:28:36.319Z,99.90
2017-05-05T06:31:04.853Z,99.90
2017-05-05T06:33:33.457Z,99.90
2017-05-05T06:36:01.989Z,99.90
2017-05-05T06:38:30.513Z,99.90
2017-05-05T06:40:59.109Z,99.90
2017-05-05T06:43:27.645Z,99.90
2017-05-05T06:45:56.174Z,99.90
2017-05-05T06:48:24.846Z,99.90
2017-05-05T06:50:53.381Z,99.90
2017-05-05T06:53:21.907Z,99.90
2017-05-05T06:55:50.497Z,99.90
2017-05-05T06:58:19.022Z,99.90
2017-05-05T07:00:47.551Z,99.90
2017-05-05T07:03:16.142Z,99.90
2017-05-05T07:05:44.677Z,99.90
2017-05-05T07:08:13.204Z,99.90
2017-05-05T07:10:41.791Z,99.90
2017-05-05T07:13:10.321Z,99.90
2017-05-05T07:15:38.863Z,99.90
2017-05-05T07:18:07.438Z,99.90
2017-05-05T07:20:35.974Z,99.90
2017-05-05T07:23:04.501Z,99.90
2017-05-05T07:25:33.064Z,99.90
2017-05-05T07:28:01.594Z,99.90
2017-05-05T07:30:30.862Z,99.90
2017-05-05T07:32:59.426Z,99.90
2017-05-05T07:35:27.962Z,99.90
2017-05-05T07:37:56.490Z,99.90
2017-05-05T07:40:25.066Z,99.90
2017-05-05T07:42:53.593Z,99.90
2017-05-05T07:45:22.121Z,99.90
2017-05-05T07:47:50.708Z,99.90
2017-05-05T07:50:19.241Z,99.90
2017-05-05T07:52:47.774Z,99.90
2017-05-05T07:55:16.505Z,99.90
2017-05-05T07:57:45.047Z,99.90
2017-05-05T08:00:13.577Z,99.90
2017-05-05T08:02:42.152Z,99.90
2017-05-05T08:05:10.683Z,99.90
2017-05-05T08:07:39.214Z,99.90
2017-05-05T08:10:07.793Z,99.90
2017-05-05T08:12:36.379Z,99.90
2017-05-05T08:15:04.924Z,99.90
2017-05-05T08:17:33.494Z,99.90
2017-05-05T08:20:02.031Z,99.90
2017-05-05T08:22:30.572Z,99.90
2017-05-05T08:24:59.167Z,99.90
2017-05-05T08:27:27.706Z,99.90
2017-05-05T08:29:56.235Z,99.90
2017-05-05T08:32:24.801Z,99.90
2017-05-05T08:34:53.339Z,99.90
2017-05-05T08:37:21.866Z,99.90
2017-05-05T08:39:50.439Z,99.90
2017-05-05T08:42:18.968Z,99.90
2017-05-05T08:44:47.508Z,99.90
2017-05-05T08:47:16.088Z,99.90
2017-05-05T08:49:44.612Z,99.90
2017-05-05T08:52:13.142Z,75.00
2017-05-05T08:54:41.895Z,59.70
2017-05-05T08:57:10.423Z,53.90
2017-05-05T08:59:38.957Z,49.80
2017-05-05T09:02:07.551Z,46.80
2017-05-05T09:04:36.073Z,43.90
2017-05-05T09:07:04.586Z,44.10
2017-05-05T09:09:33.154Z,46.60
2017-05-05T09:12:01.685Z,49.90
2017-05-05T09:14:30.226Z,50.80
2017-05-05T09:16:58.803Z,55.10
2017-05-05T09:19:27.329Z,60.60
2017-05-05T09:21:55.864Z,63.70
2017-05-05T09:24:24.445Z,59.00
2017-05-05T09:26:52.991Z,63.40
2017-05-05T09:29:21.521Z,62.30
2017-05-05T09:31:50.091Z,60.00
2017-05-05T09:34:18.645Z,61.00
2017-05-05T09:36:47.173Z,63.10
2017-05-05T09:39:15.740Z,69.50
2017-05-05T09:41:44.265Z,74.00
2017-05-05T09:44:12.816Z,80.10
2017-05-05T09:46:41.412Z,73.00
2017-05-05T09:49:09.957Z,70.20
2017-05-05T09:51:38.529Z,68.50
2017-05-05T09:54:07.102Z,70.20
2017-05-05T09:56:35.637Z,68.40
2017-05-05T09:59:04.167Z,65.50
2017-05-05T10:01:32.770Z,64.40
2017-05-05T10:04:01.305Z,68.10
2017-05-05T10:06:29.846Z,67.80
2017-05-05T10:08:58.414Z,81.80
2017-05-05T10:11:26.937Z,81.10
2017-05-05T10:13:55.463Z,78.50
2017-05-05T10:16:24.022Z,75.40
2017-05-05T10:18:52.566Z,73.80
2017-05-05T10:21:21.096Z,69.40
2017-05-05T10:23:49.679Z,68.80
2017-05-05T10:26:18.218Z,65.90
2017-05-05T10:28:46.750Z,62.60
2017-05-05T10:31:15.327Z,64.20
2017-05-05T10:33:43.853Z,59.70
2017-05-05T10:36:12.374Z,64.90
2017-05-05T10:38:40.951Z,62.10
2017-05-05T10:41:09.482Z,62.00
2017-05-05T10:43:38.022Z,62.70
2017-05-05T10:46:06.603Z,60.70
2017-05-05T10:48:35.141Z,60.60
2017-05-05T10:51:03.678Z,59.60
2017-05-05T10:53:32.259Z,62.30
2017-05-05T10:56:00.788Z,62.10
2017-05-05T10:58:29.321Z,66.70
2017-05-05T11:00:57.894Z,67.50
2017-05-05T11:03:26.425Z,70.80
2017-05-05T11:05:54.958Z,69.10
2017-05-05T11:08:23.534Z,67.30
2017-05-05T11:10:52.058Z,68.00
2017-05-05T11:13:20.595Z,67.20
2017-05-05T11:15:49.156Z,68.90
2017-05-05T11:18:17.737Z,66.40
2017-05-05T11:20:46.265Z,69.60
2017-05-05T11:23:14.838Z,68.80
2017-05-05T11:25:43.368Z,75.80
2017-05-05T11:28:12.640Z,73.30
2017-05-05T11:30:41.203Z,69.00
2017-05-05T11:33:09.746Z,69.70
2017-05-05T11:35:38.277Z,74.70
2017-05-05T11:38:07.021Z,75.80
2017-05-05T11:40:35.544Z,76.00
2017-05-05T11:43:04.060Z,73.20
2017-05-05T11:45:32.639Z,71.80
2017-05-05T11:48:01.158Z,70.40
2017-05-05T11:50:29.690Z,67.50
2017-05-05T11:52:58.264Z,66.10
2017-05-05T11:55:26.798Z,64.00
2017-05-05T11:57:55.332Z,64.20
2017-05-05T12:00:23.902Z,64.60
2017-05-05T12:02:52.436Z,67.20
2017-05-05T12:05:20.971Z,69.00
2017-05-05T12:07:49.554Z,65.30
2017-05-05T12:10:18.090Z,65.60
2017-05-05T12:12:46.631Z,62.90
2017-05-05T12:15:15.209Z,61.50
2017-05-05T12:17:43.747Z,61.90
2017-05-05T12:20:12.285Z,60.20
2017-05-05T12:22:40.883Z,59.50
2017-05-05T12:25:09.418Z,61.50
2017-05-05T12:27:37.967Z,60.00
2017-05-05T12:30:06.563Z,60.10
2017-05-05T12:32:35.099Z,59.00
2017-05-05T12:35:03.656Z,58.50
2017-05-05T12:37:32.238Z,58.80
2017-05-05T12:40:00.783Z,63.30
2017-05-05T12:42:29.310Z,63.50
2017-05-05T12:44:57.885Z,62.60
2017-05-05T12:47:26.422Z,61.80
2017-05-05T12:49:54.955Z,60.30
2017-05-05T12:52:23.540Z,57.70
2017-05-05T12:54:52.067Z,59.70
2017-05-05T12:57:20.613Z,60.40
2017-05-05T12:59:49.191Z,60.60
2017-05-05T13:02:17.730Z,60.00
2017-05-05T13:04:46.262Z,60.50
2017-05-05T13:07:14.848Z,63.80
2017-05-05T13:09:43.367Z,63.10
2017-05-05T13:12:11.890Z,63.60
2017-05-05T13:14:40.464Z,62.40
2017-05-05T13:17:08.995Z,62.20
2017-05-05T13:19:37.530Z,64.20
2017-05-05T13:22:06.099Z,65.20
2017-05-05T13:24:34.646Z,65.30
2017-05-05T13:27:03.177Z,65.90
2017-05-05T13:29:31.745Z,62.90
2017-05-05T13:32:00.277Z,58.80
2017-05-05T13:34:28.824Z,57.70
2017-05-05T13:36:57.559Z,56.60
2017-05-05T13:39:26.091Z,56.40
2017-05-05T13:41:54.638Z,55.70
2017-05-05T13:44:23.207Z,54.40
2017-05-05T13:46:51.728Z,54.50
2017-05-05T13:49:20.257Z,58.60
2017-05-05T13:51:48.827Z,53.60
2017-05-05T13:54:17.366Z,58.00
2017-05-05T13:56:45.907Z,59.10
2017-05-05T13:59:14.478Z,61.80
2017-05-05T14:01:43.010Z,65.00
2017-05-05T14:04:11.550Z,67.30
2017-05-05T14:06:40.121Z,69.90
2017-05-05T14:09:08.649Z,73.20
2017-05-05T14:11:37.177Z,73.60
2017-05-05T14:14:05.751Z,76.10
2017-05-05T14:16:34.306Z,78.70
2017-05-05T14:19:02.826Z,86.60
2017-05-05T14:21:31.751Z,85.00
2017-05-05T14:24:00.282Z,79.10
2017-05-05T14:26:28.835Z,80.30
2017-05-05T14:28:57.417Z,76.50
2017-05-05T14:31:25.947Z,76.10
2017-05-05T14:33:54.472Z,73.10
2017-05-05T14:36:23.046Z,70.50
2017-05-05T14:38:51.573Z,69.20
2017-05-05T14:41:20.124Z,66.70
2017-05-05T14:43:48.741Z,66.10
2017-05-05T14:46:17.267Z,65.80
2017-05-05T14:48:45.802Z,65.60
2017-05-05T14:51:14.387Z,72.00
2017-05-05T14:53:42.920Z,74.20
2017-05-05T14:56:11.456Z,73.80
2017-05-05T14:58:40.097Z,74.30
2017-05-05T15:01:08.638Z,72.30
2017-05-05T15:03:37.161Z,76.80
2017-05-05T15:06:05.739Z,79.50
2017-05-05T15:08:34.348Z,83.50
2017-05-05T15:11:02.883Z,85.50
2017-05-05T15:13:31.633Z,88.10
2017-05-05T15:16:00.167Z,88.00
2017-05-05T15:18:28.726Z,93.50
2017-05-05T15:20:57.462Z,85.20
2017-05-05T15:23:25.993Z,84.30
2017-05-05T15:25:54.511Z,81.30
2017-05-05T15:28:23.309Z,79.80
2017-05-05T15:30:51.841Z,83.40
2017-05-05T15:33:20.382Z,76.10
2017-05-05T15:35:49.181Z,73.30
2017-05-05T15:38:17.748Z,72.20
2017-05-05T15:40:46.269Z,68.80
2017-05-05T15:43:14.840Z,68.90
2017-05-05T15:45:43.389Z,67.30
2017-05-05T15:48:11.964Z,68.00
2017-05-05T15:50:40.575Z,70.10
2017-05-05T15:53:09.113Z,63.70
2017-05-05T15:55:37.649Z,64.80
2017-05-05T15:58:06.225Z,62.60
2017-05-05T16:00:34.804Z,66.90
2017-05-05T16:03:03.334Z,69.30
2017-05-05T16:05:31.910Z,67.80
2017-05-05T16:08:00.449Z,69.10
2017-05-05T16:10:28.987Z,70.10
2017-05-05T16:12:57.549Z,73.80
2017-05-05T16:15:26.086Z,75.30
2017-05-05T16:17:54.617Z,77.40
2017-05-05T16:20:23.313Z,77.90
2017-05-05T16:22:51.848Z,80.90
2017-05-05T16:25:20.384Z,81.80
2017-05-05T16:27:48.966Z,84.50
2017-05-05T16:30:17.533Z,84.40
2017-05-05T16:32:46.079Z,83.10
2017-05-05T16:35:14.605Z,82.20
2017-05-05T16:37:43.130Z,81.60
2017-05-05T16:40:11.653Z,86.50
2017-05-05T16:42:40.173Z,85.20
2017-05-05T16:45:08.707Z,87.60
2017-05-05T16:47:37.282Z,86.00
2017-05-05T16:50:05.810Z,88.80
2017-05-05T16:52:34.336Z,91.20
2017-05-05T16:55:02.858Z,93.90
2017-05-05T16:57:31.426Z,99.90
2017-05-05T16:59:59.969Z,99.90
2017-05-05T17:02:28.511Z,99.90
2017-05-05T17:04:57.104Z,99.90
2017-05-05T17:07:25.646Z,99.90
2017-05-05T17:09:54.182Z,99.90
2017-05-05T17:12:22.761Z,99.90
2017-05-05T17:14:51.282Z,99.90
2017-05-05T17:17:19.818Z,99.90
2017-05-05T17:19:48.460Z,99.90
2017-05-05T17:22:17.007Z,99.90
2017-05-05T17:24:45.537Z,99.90
2017-05-05T17:27:14.144Z,99.90
2017-05-05T17:29:42.667Z,99.90
2017-05-05T17:32:11.213Z,99.90
2017-05-05T17:34:39.777Z,99.90
2017-05-05T17:37:08.312Z,99.90
2017-05-05T17:39:36.854Z,99.90
2017-05-05T17:42:05.458Z,99.90
2017-05-05T17:44:34.013Z,99.90
2017-05-05T17:47:02.546Z,99.90
2017-05-05T17:49:31.125Z,99.90
2017-05-05T17:51:59.655Z,99.90
2017-05-05T17:54:28.186Z,99.90
2017-05-05T17:56:56.765Z,99.90
2017-05-05T17:59:25.295Z,99.90
2017-05-05T18:01:53.826Z,99.90
2017-05-05T18:04:22.414Z,99.90
2017-05-05T18:06:50.952Z,99.90
2017-05-05T18:09:19.486Z,99.90
2017-05-05T18:11:48.238Z,99.90
2017-05-05T18:14:16.777Z,99.90
2017-05-05T18:16:45.300Z,99.90
2017-05-05T18:19:13.907Z,99.90
2017-05-05T18:21:42.436Z,99.90
2017-05-05T18:24:10.970Z,99.90
2017-05-05T18:26:39.540Z,99.90
2017-05-05T18:29:08.069Z,99.90
2017-05-05T18:31:36.615Z,99.90
2017-05-05T18:34:05.185Z,99.90
2017-05-05T18:36:33.714Z,99.90
2017-05-05T18:39:02.393Z,99.90
2017-05-05T18:41:30.978Z,99.90
2017-05-05T18:43:59.508Z,99.90
2017-05-05T18:46:27.259Z,99.90
2017-05-05T18:48:55.838Z,99.90
2017-05-05T18:51:24.378Z,99.90
2017-05-05T18:53:52.916Z,99.90
2017-05-05T18:56:21.512Z,99.90
2017-05-05T18:58:50.091Z,99.90
2017-05-05T19:01:18.654Z,99.90
2017-05-05T19:03:47.250Z,99.90
2017-05-05T19:06:15.917Z,99.90
2017-05-05T19:08:44.510Z,99.90
2017-05-05T19:11:13.095Z,99.90
2017-05-05T19:13:41.630Z,99.90
2017-05-05T19:16:10.165Z,99.90
2017-05-05T19:18:38.743Z,99.90
2017-05-05T19:21:07.274Z,99.90
2017-05-05T19:23:35.865Z,99.90
2017-05-05T19:26:04.438Z,99.90
2017-05-05T19:28:32.985Z,99.90
2017-05-05T19:31:01.509Z,99.90
2017-05-05T19:33:30.088Z,99.90
2017-05-05T19:35:58.626Z,99.90
2017-05-05T19:38:27.158Z,99.90
2017-05-05T19:40:55.794Z,99.90
2017-05-05T19:43:24.350Z,99.90
2017-05-05T19:45:52.886Z,99.90
2017-05-05T19:48:21.453Z,99.90
2017-05-05T19:50:49.984Z,99.90
2017-05-05T19:53:18.507Z,99.90
2017-05-05T19:55:47.123Z,99.90
2017-05-05T19:58:15.666Z,99.90
2017-05-05T20:00:44.208Z,99.90
2017-05-05T20:03:12.774Z,99.90
2017-05-05T20:05:41.311Z,99.90
2017-05-05T20:08:09.890Z,99.90
2017-05-05T20:10:38.470Z,99.90
2017-05-05T20:13:07.002Z,99.90
2017-05-05T20:15:35.553Z,99.90
2017-05-05T20:18:04.372Z,99.90
2017-05-05T20:20:32.917Z,99.90
2017-05-05T20:23:01.455Z,99.90
2017-05-05T20:25:30.028Z,99.90
2017-05-05T20:27:58.568Z,99.90
2017-05-05T20:30:27.101Z,99.90
2017-05-05T20:33:08.310Z,99.90
2017-05-05T20:35:36.855Z,99.90
2017-05-05T20:38:05.390Z,99.90
2017-05-05T20:40:33.973Z,99.90
2017-05-05T20:43:02.495Z,99.90
2017-05-05T20:45:31.039Z,99.90
2017-05-05T20:47:59.605Z,99.90
2017-05-05T20:50:28.873Z,99.90
2017-05-05T20:52:57.417Z,99.90
2017-05-05T20:55:25.999Z,99.90
2017-05-05T20:57:54.541Z,99.90
2017-05-05T21:00:23.161Z,99.90
2017-05-05T21:02:51.759Z,99.90
2017-05-05T21:05:20.298Z,99.90
2017-05-05T21:07:48.864Z,99.90
2017-05-05T21:10:17.417Z,99.90
2017-05-05T21:12:45.945Z,99.90
2017-05-05T21:15:14.485Z,99.90
2017-05-05T21:17:43.076Z,99.90
2017-05-05T21:20:11.609Z,99.90
2017-05-05T21:22:40.123Z,99.90
2017-05-05T21:25:08.700Z,99.90
2017-05-05T21:27:37.239Z,99.90
2017-05-05T21:30:05.909Z,99.90
2017-05-05T21:32:34.482Z,99.90
2017-05-05T21:35:03.014Z,99.90
2017-05-05T21:37:31.540Z,99.90
2017-05-05T21:40:00.104Z,99.90
2017-05-05T21:42:28.621Z,99.90
2017-05-05T21:44:57.153Z,99.90
2017-05-05T21:47:25.716Z,99.90
2017-05-05T21:49:54.285Z,99.90
2017-05-05T21:52:22.820Z,99.90
2017-05-05T21:54:51.386Z,99.90
2017-05-05T21:57:19.915Z,99.90
2017-05-05T21:59:48.442Z,99.90
2017-05-05T22:02:17.005Z,99.90
2017-05-05T22:04:45.529Z,99.90
2017-05-05T22:07:14.064Z,99.90
2017-05-05T22:09:42.632Z,99.90
2017-05-05T22:12:11.158Z,99.90
2017-05-05T22:14:39.684Z,99.90
2017-05-05T22:17:08.272Z,99.90
2017-05-05T22:19:36.827Z,99.90
2017-05-05T22:22:06.333Z,99.90
2017-05-05T22:24:34.911Z,99.90
2017-05-05T22:27:03.566Z,99.90
2017-05-05T22:29:32.107Z,99.90
2017-05-05T22:32:00.845Z,99.90
2017-05-05T22:34:29.373Z,99.90
2017-05-05T22:36:57.945Z,99.90
2017-05-05T22:39:26.533Z,99.90
2017-05-05T22:41:55.078Z,99.90
2017-05-05T22:44:23.604Z,99.90
2017-05-05T22:46:52.166Z,99.90
2017-05-05T22:49:20.694Z,99.90
2017-05-05T22:51:49.233Z,99.90
2017-05-05T22:54:17.805Z,99.90
2017-05-05T22:56:46.365Z,99.90
2017-05-05T22:59:14.914Z,99.90
2017-05-05T23:01:43.495Z,99.90
2017-05-05T23:04:12.022Z,99.90
2017-05-05T23:06:40.587Z,99.90
2017-05-05T23:09:09.151Z,99.90
2017-05-05T23:11:37.686Z,99.90
2017-05-05T23:14:06.222Z,99.90
2017-05-05T23:16:35.554Z,99.90
2017-05-05T23:19:04.091Z,99.90
2017-05-05T23:21:32.630Z,99.90
2017-05-05T23:24:01.195Z,99.90
2017-05-05T23:26:29.870Z,99.90
2017-05-05T23:28:58.402Z,99.90
2017-05-05T23:31:26.976Z,99.90
2017-05-05T23:33:55.542Z,99.90
2017-05-05T23:36:24.082Z,99.90
2017-05-05T23:38:52.674Z,99.90
2017-05-05T23:41:21.223Z,99.90
2017-05-05T23:43:49.775Z,99.90
2017-05-05T23:46:18.356Z,99.90
2017-05-05T23:48:46.885Z,99.90
2017-05-05T23:51:15.410Z,99.90
2017-05-05T23:53:43.993Z,99.90
2017-05-05T23:56:12.532Z,99.90
2017-05-05T23:58:41.073Z,99.90
